Stations météo

réclame
Mon MeteoGroup
Rodkallen, Suède (2188): Température de l'air & dewpoint: 11.01.2021 04:00:00 - 17.01.2021 04:00:00 (CET)Rodkallen, Suède (2188): Vitesse du vent & gusts: 11.01.2021 04:00:00 - 17.01.2021 04:00:00 (CET)Rodkallen, Suède (2188): Direction du vent: 11.01.2021 04:00:00 - 17.01.2021 04:00:00 (CET)Rodkallen, Suède (2188): visibility: 11.01.2021 04:00:00 - 17.01.2021 04:00:00 (CET)Rodkallen, Suède (2188): Quantités de précipitations: 11.01.2021 04:00:00 - 17.01.2021 04:00:00 (CET)
Date & Time tt [°C] td [°C] ff [km/h] ff [knt] fx [km/h] fx [knt] dd vv [km] rr [mm]
17.01.2021 04:00:00 -8,9 -10,2 11 6 13 7 W 50 0,0
17.01.2021 03:00:00 -9,6 -11,1 10 5 12 6 W 50 0,0
17.01.2021 02:00:00 -9,1 -10,6 11 6 15 8 W 50 0,0
17.01.2021 01:00:00 -9,0 -10,3 12 7 16 9 WNW 50 0,0
17.01.2021 00:00:00 -8,7 -10,2 11 6 15 8 W 50 0,0
16.01.2021 23:00:00 -8,9 -10,4 14 7 16 9 WNW 50 0,0
16.01.2021 22:00:00 -8,1 -9,5 12 6 16 8 W 50 0,0
16.01.2021 21:00:00 -6,5 -8,0 13 7 18 10 W 50 0,0
16.01.2021 20:00:00 -6,3 -7,7 13 7 18 10 WNW 50 0,0
16.01.2021 19:00:00 -6,3 -7,7 11 6 18 10 WNW 50 0,0
16.01.2021 18:00:00 -5,7 -6,9 14 7 18 10 WNW 50 0,0
16.01.2021 17:00:00 -6,5 -7,7 12 7 17 9 WNW 50 0,0
16.01.2021 16:00:00 -7,7 -8,8 12 7 16 8 WNW 50 0,0
16.01.2021 15:00:00 -7,6 -8,8 14 7 16 8 WNW 50 0,0
16.01.2021 14:00:00 -7,4 -8,8 9 5 17 9 NW 50 0,0
16.01.2021 13:00:00 -6,4 -7,9 13 7 20 11 NW 50 0,0
16.01.2021 12:00:00 -6,1 -7,6 17 9 21 12 NW 50 0,0
16.01.2021 11:00:00 -6,5 -8,0 16 8 20 11 NW 50 0,0
16.01.2021 10:00:00 -6,6 -8,0 13 7 22 12 NW 50 0,0
16.01.2021 09:00:00 -5,7 -7,1 18 10 21 12 WNW 50 0,0
16.01.2021 08:00:00 -5,5 -6,9 14 7 23 13 WNW 50 0,0
16.01.2021 07:00:00 -4,6 -6,4 18 10 28 15 NW 50 0,0
16.01.2021 06:00:00 -3,5 -5,3 20 11 29 16 NW 50 0,0
16.01.2021 05:00:00 -2,9 -4,9 20 11 31 17 NW 50 0,0
16.01.2021 04:00:00 -3,1 -5,0 19 11 30 16 NW 50 0,0
16.01.2021 03:00:00 -3,3 -5,3 23 12 32 17 NW 50 0,0
16.01.2021 02:00:00 -3,6 -5,8 23 13 36 19 NW 50 0,0
16.01.2021 01:00:00 -4,0 -5,8 22 12 32 17 NW 50 0,0
16.01.2021 00:00:00 -3,2 -5,2 20 11 32 18 NW 50 0,0
15.01.2021 23:00:00 -3,0 -5,0 21 12 29 16 NW 50 0,0
15.01.2021 22:00:00 -2,8 -4,7 20 11 29 16 NW 50 0,0
15.01.2021 21:00:00 -2,9 -4,9 24 13 35 19 NW 50 0,0
15.01.2021 20:00:00 -2,2 -4,2 23 13 32 17 NW 50 0,0
15.01.2021 19:00:00 -2,9 -4,3 20 11 29 16 NW 50 0,0
15.01.2021 18:00:00 -3,6 -4,6 20 11 29 16 NW 50 0,0
15.01.2021 17:00:00 -3,9 -4,6 16 9 25 14 NW 50 0,0
15.01.2021 16:00:00 -4,2 -4,8 15 8 19 10 WNW 50 0,0
15.01.2021 15:00:00 -4,5 -5,2 11 6 16 9 WNW 50 0,0
15.01.2021 14:00:00 -6,3 -7,2 6 4 9 5 WNW 50 0,0
15.01.2021 13:00:00 -7,4 -8,3 6 3 8 5 WNW 50 0,0
15.01.2021 12:00:00 -7,8 -8,9 5 3 7 4 WNW 50 0,0
15.01.2021 11:00:00 -8,7 -9,9 0 0 2 1 N - 0,0
15.01.2021 10:00:00 -9,1 -10,3 3 1 6 4 WNW 50 0,0
15.01.2021 09:00:00 -8,9 -10,1 5 3 8 4 WNW 50 0,0
15.01.2021 08:00:00 -10,3 -11,6 6 3 11 6 WNW 13 0,0
15.01.2021 07:00:00 -11,9 -13,5 8 5 10 6 WNW 50 0,0
15.01.2021 06:00:00 -12,2 -13,8 7 4 11 6 W 50 0,0
15.01.2021 05:00:00 -12,6 -14,2 9 5 11 6 W 33 0,0
15.01.2021 04:00:00 -12,3 -13,9 7 4 10 5 WSW 7 0,0
15.01.2021 03:00:00 -15,2 -17,1 6 3 8 4 W 2,0 0,0
15.01.2021 02:00:00 -16,8 -18,9 6 3 8 4 WNW 6 0,0
15.01.2021 01:00:00 -16,7 -18,8 4 2 11 6 NW 2,4 0,0
15.01.2021 00:00:00 -17,4 -19,6 5 3 8 5 NNW 6 0,0
14.01.2021 23:00:00 -17,4 -19,5 5 3 8 4 N 3,5 0,0
14.01.2021 22:00:00 -17,5 -19,6 3 2 7 4 NNW 2,7 0,0
14.01.2021 21:00:00 -18,1 -20,3 4 2 7 4 N 11 0,0
14.01.2021 20:00:00 -18,7 -21,1 5 3 9 5 N 5 0,0
14.01.2021 19:00:00 -19,1 -21,4 7 4 12 7 N 12 0,7
14.01.2021 18:00:00 -19,3 -21,7 10 5 13 7 N 35 0,0
14.01.2021 17:00:00 -19,7 -22,1 8 5 12 7 N 50 0,0
14.01.2021 16:00:00 -20,7 -23,2 10 5 13 7 N 50 0,0
14.01.2021 15:00:00 -21,5 -24,0 9 5 14 7 N 50 0,0
14.01.2021 14:00:00 -21,0 -23,5 10 6 13 7 N 26 0,0
14.01.2021 13:00:00 -19,9 -22,3 9 5 11 6 N 21 0,0
14.01.2021 12:00:00 -20,3 -22,7 8 4 16 8 N 50 0,0
14.01.2021 11:00:00 -20,5 -23,0 9 5 14 7 N 50 0,0
14.01.2021 10:00:00 -21,6 -24,3 10 5 14 8 N 50 0,0
14.01.2021 09:00:00 -22,4 -25,0 11 6 17 9 N 50 0,0
14.01.2021 08:00:00 -22,7 -25,3 14 7 18 10 N 50 0,0
14.01.2021 07:00:00 -22,0 -24,7 14 8 17 9 N 50 0,0
14.01.2021 06:00:00 -22,0 -24,7 14 8 19 10 N 45 0,0
14.01.2021 05:00:00 -22,2 -24,8 16 9 23 12 N 50 0,0
14.01.2021 04:00:00 -22,3 -25,0 19 10 30 16 N 50 0,0
14.01.2021 03:00:00 -21,6 -24,1 19 10 26 14 N 50 0,0
14.01.2021 02:00:00 -21,4 -23,9 22 12 36 20 N 50 0,0
14.01.2021 01:00:00 -21,2 -23,7 29 15 39 21 NNW 43 0,0
14.01.2021 00:00:00 -20,4 -22,8 28 15 39 21 N 14 0,0
13.01.2021 23:00:00 -20,0 -22,4 29 16 38 20 N 21 0,0
13.01.2021 22:00:00 -20,2 -22,6 29 16 40 21 N 13 0,0
13.01.2021 21:00:00 -20,2 -22,6 29 16 39 21 N 34 0,0
13.01.2021 20:00:00 -20,0 -22,4 29 15 39 21 N 50 0,0
13.01.2021 19:00:00 -19,2 -21,5 29 16 41 22 N 50 0,0
13.01.2021 18:00:00 -18,8 -21,1 33 18 44 24 N 50 0,0
13.01.2021 17:00:00 -18,6 -20,9 37 20 48 26 N 50 0,0
13.01.2021 16:00:00 -18,3 -20,5 36 19 54 29 N 50 0,0
13.01.2021 15:00:00 -18,0 -20,2 44 24 57 31 N 50 0,0
13.01.2021 14:00:00 -17,7 -19,9 42 23 52 28 N 43 0,0
13.01.2021 13:00:00 - - - - - - - - -
13.01.2021 12:00:00 -17,2 -19,3 37 20 49 27 N 2,4 0,1
13.01.2021 11:00:00 - - - - - - - - -
13.01.2021 10:00:00 - - - - - - - - -
13.01.2021 09:00:00 -15,4 -17,2 35 19 45 24 N 0,6 0,1
13.01.2021 08:00:00 -10,0 -11,3 37 20 51 28 NE 2,7 0,0
13.01.2021 07:00:00 -9,9 -11,2 39 21 51 28 ENE 2,8 0,0
13.01.2021 06:00:00 -9,9 -11,1 41 22 55 30 ENE 2,6 0,0
13.01.2021 05:00:00 -9,1 -10,3 40 22 52 28 ENE 1,9 0,0
13.01.2021 04:00:00 -9,3 -10,5 42 23 52 28 ENE 1,6 0,1
13.01.2021 03:00:00 -9,0 -10,3 38 21 53 29 ENE 1,3 0,1
13.01.2021 02:00:00 -8,6 -9,8 42 23 55 30 ENE 1,8 0,1
13.01.2021 01:00:00 -8,6 -9,8 44 24 59 32 ENE 0,6 0,2
13.01.2021 00:00:00 -8,5 -9,6 46 25 61 33 ENE 1,0 0,2
12.01.2021 23:00:00 -8,3 -9,4 48 26 65 35 ENE 0,6 0,1
12.01.2021 22:00:00 -8,1 -9,3 53 29 70 38 ENE 1,2 0,1
12.01.2021 21:00:00 -7,7 -8,9 53 29 68 37 ENE 1,0 0,3
12.01.2021 20:00:00 -7,2 -8,4 55 30 71 39 ENE 1,0 0,3
12.01.2021 19:00:00 -7,1 -8,5 57 31 74 40 E 1,2 0,7
12.01.2021 18:00:00 -6,9 -8,0 58 31 74 40 E 0,5 0,5
12.01.2021 17:00:00 -6,9 -8,0 60 32 77 41 E 0,7 0,2
12.01.2021 16:00:00 -7,0 -7,9 57 31 74 40 E 7 0,0
12.01.2021 15:00:00 -6,4 -7,5 57 31 72 39 E 14 0,0
12.01.2021 14:00:00 -6,0 -7,4 59 32 74 40 ENE 12 0,0
12.01.2021 13:00:00 -5,7 -7,2 59 32 77 42 E 16 0,0
12.01.2021 12:00:00 -5,7 -7,4 63 34 76 41 E 17 0,0
12.01.2021 11:00:00 -5,6 -7,3 60 33 74 40 E 13 0,0
12.01.2021 10:00:00 -5,1 -6,5 58 31 75 40 E 14 0,0
12.01.2021 09:00:00 -5,6 -7,0 56 31 74 40 E 18 0,0
12.01.2021 08:00:00 -5,6 -7,0 61 33 79 43 E 18 0,0
12.01.2021 07:00:00 -5,2 -6,4 61 33 80 43 E 15 0,0
12.01.2021 06:00:00 -4,9 -6,3 61 33 75 40 E 16 0,0
12.01.2021 05:00:00 -4,5 -5,7 57 31 74 40 E 22 0,0
12.01.2021 04:00:00 -4,3 -5,5 53 28 71 39 E 26 0,0
12.01.2021 03:00:00 -3,3 -5,2 52 28 64 35 E 29 0,0
12.01.2021 02:00:00 -3,4 -4,8 49 27 61 33 E 28 0,0
12.01.2021 01:00:00 -3,4 -4,4 45 24 55 30 E 21 0,0
12.01.2021 00:00:00 -2,9 -4,3 41 22 51 28 E 35 0,0
11.01.2021 23:00:00 -2,6 -4,2 41 22 50 27 E 36 0,0
11.01.2021 22:00:00 -2,7 -4,3 38 21 45 25 E 33 0,0
11.01.2021 21:00:00 -2,2 -3,8 36 20 44 24 ESE 44 0,0
11.01.2021 20:00:00 -1,1 -3,1 34 18 44 24 SE 41 0,0
11.01.2021 19:00:00 -0,9 -2,6 35 19 42 23 SE 35 0,0
11.01.2021 18:00:00 -1,1 -2,4 32 18 45 24 ESE 20 0,0
11.01.2021 17:00:00 -1,5 -2,9 34 18 43 23 ESE 28 0,0
11.01.2021 16:00:00 -2,0 -3,3 32 18 41 22 ESE 18 0,0
11.01.2021 15:00:00 -2,3 -3,7 33 18 43 23 ESE 19 0,0
11.01.2021 14:00:00 -2,8 -4,1 35 19 43 23 ESE 2,9 0,1
11.01.2021 13:00:00 -2,8 -4,2 35 19 43 23 ESE 11 -
11.01.2021 12:00:00 -3,0 -4,6 36 20 44 24 ESE 10 0,0
11.01.2021 11:00:00 -2,9 -4,6 35 19 46 25 ESE 9 0,0
11.01.2021 10:00:00 -2,7 -4,5 38 20 48 26 ESE 8 0,1
11.01.2021 09:00:00 -2,6 -4,2 33 18 42 23 SE 4,8 0,0
11.01.2021 08:00:00 -2,5 -4,4 37 20 46 25 ESE 15 0,0
11.01.2021 07:00:00 -2,3 -4,2 36 19 44 24 ESE 7 0,0
11.01.2021 06:00:00 -2,0 -3,9 36 19 43 23 ESE 12 0,1
11.01.2021 05:00:00 -1,9 -3,8 35 19 45 25 SE 6 0,0
11.01.2021 04:00:00 -1,7 -3,2 35 19 46 25 SE 13 0,0

tt = Température de l'air
td = dewpoint
ff = Vitesse du vent
fx = gusts
dd = Direction du vent
vv = visibility
rr = Quantités de précipitations

stations d'obs. à proximité